createdAt,value
2022-11-28T00:01:34.659Z,90.10
2022-11-28T00:03:37.751Z,85.32
2022-11-28T00:05:45.654Z,71.28
2022-11-28T00:07:49.699Z,71.78
2022-11-28T00:09:53.719Z,70.40
2022-11-28T00:11:56.630Z,61.92
2022-11-28T00:13:59.823Z,80.30
2022-11-28T00:16:04.850Z,106.10
2022-11-28T00:18:07.519Z,112.75
2022-11-28T00:20:10.619Z,98.43
2022-11-28T00:22:13.239Z,100.32
2022-11-28T00:24:16.340Z,86.43
2022-11-28T00:26:23.319Z,108.05
2022-11-28T00:28:25.979Z,100.05
2022-11-28T00:30:28.673Z,92.97
2022-11-28T00:32:31.191Z,100.40
2022-11-28T00:34:33.780Z,80.22
2022-11-28T00:36:36.752Z,81.75
2022-11-28T00:38:40.030Z,80.22
2022-11-28T00:40:42.770Z,92.28
2022-11-28T00:42:45.398Z,90.18
2022-11-28T00:44:49.159Z,75.45
2022-11-28T00:46:51.850Z,58.38
2022-11-28T00:48:54.570Z,53.33
2022-11-28T00:51:05.498Z,53.88
2022-11-28T00:53:08.069Z,64.32
2022-11-28T00:55:10.983Z,89.22
2022-11-28T00:57:13.593Z,78.95
2022-11-28T00:59:16.260Z,76.25
2022-11-28T01:01:27.585Z,74.60
2022-11-28T01:03:30.164Z,75.07
2022-11-28T01:05:33.179Z,82.10
2022-11-28T01:07:36.076Z,50.72
2022-11-28T01:09:38.850Z,72.30
2022-11-28T01:11:43.459Z,56.17
2022-11-28T01:13:46.809Z,57.08
2022-11-28T01:15:49.542Z,64.20
2022-11-28T01:17:52.725Z,51.17
2022-11-28T01:19:55.579Z,56.78
2022-11-28T01:21:58.089Z,52.30
2022-11-28T01:24:01.079Z,55.92
2022-11-28T01:26:06.609Z,65.80
2022-11-28T01:28:09.129Z,60.63
2022-11-28T01:30:11.797Z,66.53
2022-11-28T01:32:14.550Z,67.00
2022-11-28T01:34:17.279Z,72.80
2022-11-28T01:36:21.319Z,58.85
2022-11-28T01:38:24.561Z,57.97
2022-11-28T01:40:27.192Z,85.18
2022-11-28T01:42:30.649Z,80.22
2022-11-28T01:44:33.440Z,82.60
2022-11-28T01:46:37.206Z,81.13
2022-11-28T01:48:43.718Z,71.90
2022-11-28T01:50:50.409Z,78.95
2022-11-28T01:52:57.979Z,77.55
2022-11-28T01:55:04.189Z,77.47
2022-11-28T01:57:15.690Z,78.43
2022-11-28T01:59:20.328Z,74.32
2022-11-28T02:01:25.617Z,81.93
2022-11-28T02:03:34.120Z,75.88
2022-11-28T02:05:37.151Z,69.70
2022-11-28T02:07:39.896Z,70.15
2022-11-28T02:09:42.561Z,68.13
2022-11-28T02:12:00.399Z,72.85
2022-11-28T02:14:19.368Z,84.07
2022-11-28T02:16:28.159Z,44.97
2022-11-28T02:18:36.809Z,55.78
2022-11-28T02:21:08.655Z,55.17
2022-11-28T02:23:32.279Z,61.37
2022-11-28T02:25:36.149Z,73.70
2022-11-28T02:27:57.670Z,72.53
2022-11-28T02:30:08.920Z,67.72
2022-11-28T02:32:11.539Z,56.25
2022-11-28T02:34:22.920Z,81.15
2022-11-28T02:36:28.523Z,81.43
2022-11-28T02:38:38.361Z,55.25
2022-11-28T02:40:59.660Z,77.20
2022-11-28T02:43:25.739Z,77.05
2022-11-28T02:46:09.208Z,80.65
2022-11-28T02:48:26.400Z,81.05
2022-11-28T02:50:46.529Z,79.15
2022-11-28T02:53:05.768Z,79.07
2022-11-28T02:55:09.509Z,73.18
2022-11-28T02:57:12.531Z,63.67
2022-11-28T02:59:41.360Z,76.38
2022-11-28T03:01:44.061Z,61.75
2022-11-28T03:03:49.702Z,79.03
2022-11-28T03:06:18.438Z,50.97
2022-11-28T03:08:42.849Z,73.35
2022-11-28T03:11:15.901Z,66.18
2022-11-28T03:13:42.093Z,68.25
2022-11-28T03:15:50.162Z,57.05
2022-11-28T03:18:08.578Z,80.60
2022-11-28T03:20:32.289Z,70.35
2022-11-28T03:23:13.408Z,55.28
2022-11-28T03:25:24.689Z,69.03
2022-11-28T03:27:39.170Z,64.45
2022-11-28T03:29:57.618Z,52.35
2022-11-28T03:32:07.559Z,56.42
2022-11-28T03:34:18.539Z,46.20
2022-11-28T03:36:52.188Z,48.22
2022-11-28T03:39:07.189Z,44.28
2022-11-28T03:41:26.140Z,55.90
2022-11-28T03:43:35.940Z,42.63
2022-11-28T03:45:55.630Z,40.08
2022-11-28T03:48:02.828Z,46.40
2022-11-28T03:50:10.279Z,60.45
2022-11-28T03:52:44.330Z,59.60
2022-11-28T03:55:13.700Z,44.45
2022-11-28T03:57:32.019Z,55.63
2022-11-28T03:59:39.228Z,58.00
2022-11-28T04:01:51.029Z,48.63
2022-11-28T04:04:27.191Z,60.42
2022-11-28T04:06:55.700Z,61.47
2022-11-28T04:09:04.569Z,51.05
2022-11-28T04:11:16.379Z,59.30
2022-11-28T04:14:04.389Z,62.17
2022-11-28T04:16:14.185Z,55.83
2022-11-28T04:18:26.079Z,46.85
2022-11-28T04:20:42.488Z,40.92
2022-11-28T04:22:58.998Z,41.45
2022-11-28T04:25:09.668Z,44.55
2022-11-28T04:27:16.038Z,45.70
2022-11-28T04:29:23.331Z,41.03
2022-11-28T04:31:27.408Z,47.38
2022-11-28T04:33:36.096Z,61.30
2022-11-28T04:35:47.889Z,49.28
2022-11-28T04:37:54.099Z,60.22
2022-11-28T04:39:57.411Z,46.00
2022-11-28T04:42:40.338Z,46.53
2022-11-28T04:44:54.369Z,51.13
2022-11-28T04:46:58.349Z,64.28
2022-11-28T04:49:01.509Z,49.65
2022-11-28T04:51:16.351Z,46.47
2022-11-28T04:53:32.341Z,43.67
2022-11-28T04:56:27.419Z,41.03
2022-11-28T04:58:39.194Z,46.45
2022-11-28T05:00:42.682Z,45.55
2022-11-28T05:02:49.980Z,42.55
2022-11-28T05:04:56.080Z,45.05
2022-11-28T05:07:06.648Z,41.53
2022-11-28T05:09:12.719Z,43.03
2022-11-28T05:11:15.201Z,42.63
2022-11-28T05:13:18.739Z,45.22
2022-11-28T05:15:22.089Z,43.70
2022-11-28T05:17:24.790Z,50.20
2022-11-28T05:19:27.531Z,50.10
2022-11-28T05:21:30.649Z,52.20
2022-11-28T05:23:33.309Z,48.10
2022-11-28T05:25:37.869Z,50.53
2022-11-28T05:27:40.730Z,54.20
2022-11-28T05:29:49.401Z,52.47
2022-11-28T05:31:55.012Z,55.95
2022-11-28T05:33:58.899Z,59.90
2022-11-28T05:36:13.244Z,56.38
2022-11-28T05:38:16.489Z,58.35
2022-11-28T05:40:19.679Z,56.25
2022-11-28T05:42:22.922Z,61.55
2022-11-28T05:44:27.162Z,54.15
2022-11-28T05:46:31.268Z,69.78
2022-11-28T05:48:34.240Z,55.97
2022-11-28T05:50:42.179Z,66.55
2022-11-28T05:52:45.039Z,57.17
2022-11-28T05:54:47.543Z,44.40
2022-11-28T05:56:50.590Z,51.85
2022-11-28T05:58:55.221Z,58.33
2022-11-28T06:00:57.791Z,57.72
2022-11-28T06:03:01.751Z,62.05
2022-11-28T06:05:27.223Z,59.05
2022-11-28T06:07:28.070Z,62.10
2022-11-28T06:09:30.672Z,61.33
2022-11-28T06:11:35.689Z,61.42
2022-11-28T06:13:38.310Z,58.42
2022-11-28T06:15:44.859Z,50.85
2022-11-28T06:17:47.540Z,56.55
2022-11-28T06:19:51.018Z,56.75
2022-11-28T06:21:53.818Z,57.88
2022-11-28T06:23:58.828Z,53.67
2022-11-28T06:26:28.820Z,59.50
2022-11-28T06:28:32.020Z,48.67
2022-11-28T06:30:35.081Z,54.92
2022-11-28T06:32:41.828Z,63.38
2022-11-28T06:34:47.079Z,62.88
2022-11-28T06:36:50.249Z,51.88
2022-11-28T06:38:54.487Z,46.95
2022-11-28T06:41:03.049Z,55.38
2022-11-28T06:43:05.410Z,57.75
2022-11-28T06:45:08.950Z,45.92
2022-11-28T06:47:11.349Z,51.78
2022-11-28T06:49:14.710Z,43.58
2022-11-28T06:51:17.691Z,42.47
2022-11-28T06:53:20.740Z,42.95
2022-11-28T06:55:23.199Z,42.78
2022-11-28T06:57:26.058Z,46.88
2022-11-28T06:59:28.700Z,41.13
2022-11-28T07:01:32.875Z,44.47
2022-11-28T07:03:35.649Z,36.33
2022-11-28T07:05:38.219Z,38.58
2022-11-28T07:07:53.896Z,45.67
2022-11-28T07:09:57.279Z,50.35
2022-11-28T07:12:00.441Z,44.67
2022-11-28T07:14:04.309Z,54.15
2022-11-28T07:16:09.464Z,59.17
2022-11-28T07:18:12.141Z,48.17
2022-11-28T07:20:15.648Z,45.45
2022-11-28T07:22:19.359Z,54.25
2022-11-28T07:24:21.940Z,62.72
2022-11-28T07:26:25.049Z,65.10
2022-11-28T07:28:30.006Z,66.65
2022-11-28T07:30:32.869Z,68.60
2022-11-28T07:32:35.829Z,64.78
2022-11-28T07:34:38.834Z,62.25
2022-11-28T07:36:41.379Z,60.60
2022-11-28T07:38:44.041Z,69.47
2022-11-28T07:40:47.216Z,62.13
2022-11-28T07:42:49.940Z,71.45
2022-11-28T07:44:53.119Z,65.82
2022-11-28T07:46:56.289Z,58.08
2022-11-28T07:48:58.999Z,54.08
2022-11-28T07:51:07.389Z,49.25
2022-11-28T07:53:10.249Z,61.35
2022-11-28T07:55:13.939Z,49.90
2022-11-28T07:57:16.959Z,59.50
2022-11-28T07:59:20.189Z,50.65
2022-11-28T08:01:25.581Z,49.95
2022-11-28T08:03:28.259Z,51.28
2022-11-28T08:05:31.240Z,40.85
2022-11-28T08:07:33.790Z,49.03
2022-11-28T08:09:36.578Z,63.13
2022-11-28T08:11:39.835Z,49.63
2022-11-28T08:13:44.049Z,49.75
2022-11-28T08:15:47.079Z,59.40
2022-11-28T08:17:49.858Z,49.63
2022-11-28T08:19:53.021Z,57.22
2022-11-28T08:21:55.809Z,51.25
2022-11-28T08:24:01.072Z,60.28
2022-11-28T08:26:05.509Z,59.17
2022-11-28T08:28:08.210Z,52.90
2022-11-28T08:30:11.628Z,56.78
2022-11-28T08:32:14.379Z,79.75
2022-11-28T08:34:17.249Z,68.90
2022-11-28T08:36:20.960Z,53.75
2022-11-28T08:38:23.490Z,58.58
2022-11-28T08:40:26.369Z,66.90
2022-11-28T08:42:29.958Z,63.38
2022-11-28T08:44:32.529Z,56.03
2022-11-28T08:46:35.400Z,53.60
2022-11-28T08:48:39.920Z,51.90
2022-11-28T08:50:49.809Z,62.55
2022-11-28T08:52:52.489Z,46.55
2022-11-28T08:54:55.689Z,46.95
2022-11-28T08:56:59.219Z,57.25
2022-11-28T08:59:02.181Z,49.60
2022-11-28T09:01:05.098Z,44.85
2022-11-28T09:03:07.730Z,42.00
2022-11-28T09:05:10.630Z,38.03
2022-11-28T09:07:14.522Z,46.13
2022-11-28T09:09:17.529Z,61.00
2022-11-28T09:11:21.939Z,51.90
2022-11-28T09:13:24.619Z,49.47
2022-11-28T09:15:29.179Z,55.03
2022-11-28T09:17:33.379Z,56.03
2022-11-28T09:19:36.570Z,48.70
2022-11-28T09:21:39.518Z,53.13
2022-11-28T09:23:43.860Z,52.45
2022-11-28T09:25:46.339Z,55.67
2022-11-28T09:27:49.381Z,56.22
2022-11-28T09:29:52.979Z,50.67
2022-11-28T09:31:55.929Z,52.78
2022-11-28T09:33:59.160Z,51.35
2022-11-28T09:36:13.708Z,53.85
2022-11-28T09:38:16.730Z,45.15
2022-11-28T09:40:42.810Z,39.97
2022-11-28T09:42:47.340Z,42.70
2022-11-28T09:44:59.650Z,41.13
2022-11-28T09:49:23.746Z,39.55
2022-11-28T09:51:35.249Z,38.05
2022-11-28T09:53:46.783Z,41.87
2022-11-28T09:55:55.319Z,37.40
2022-11-28T09:57:58.390Z,41.30
2022-11-28T10:00:02.122Z,36.33
2022-11-28T10:02:39.268Z,37.47
2022-11-28T10:05:11.183Z,41.08
2022-11-28T10:07:15.163Z,42.50
2022-11-28T10:09:38.040Z,41.47
2022-11-28T10:12:03.382Z,44.67
2022-11-28T10:14:52.729Z,45.50
2022-11-28T10:17:34.416Z,43.80
2022-11-28T10:19:54.202Z,42.58
2022-11-28T10:22:04.121Z,45.90
2022-11-28T10:24:23.479Z,43.08
2022-11-28T10:26:40.178Z,39.28
2022-11-28T10:28:49.730Z,47.03
2022-11-28T10:31:18.291Z,44.40
2022-11-28T10:33:38.950Z,43.88
2022-11-28T10:36:14.079Z,44.78
2022-11-28T10:38:20.851Z,41.65
2022-11-28T10:40:28.990Z,41.17
2022-11-28T10:43:15.224Z,38.72
2022-11-28T10:45:50.968Z,41.72
2022-11-28T10:48:40.008Z,41.88
2022-11-28T10:51:02.079Z,40.17
2022-11-28T10:53:32.484Z,40.42
2022-11-28T10:55:58.430Z,41.78
2022-11-28T10:58:26.502Z,43.97
2022-11-28T11:00:33.790Z,45.28
2022-11-28T11:02:44.922Z,42.85
2022-11-28T11:04:49.182Z,42.97
2022-11-28T11:07:14.854Z,39.40
2022-11-28T11:09:23.052Z,41.30
2022-11-28T11:11:34.289Z,40.15
2022-11-28T11:13:56.256Z,40.22
2022-11-28T11:16:02.556Z,38.08
2022-11-28T11:18:53.380Z,38.67
2022-11-28T11:21:30.104Z,40.47
2022-11-28T11:23:38.283Z,39.63
2022-11-28T11:25:56.182Z,39.75
2022-11-28T11:28:04.501Z,36.75
2022-11-28T11:30:31.895Z,39.17
2022-11-28T11:32:36.510Z,42.17
2022-11-28T11:34:49.849Z,45.67
2022-11-28T11:37:14.441Z,40.95
2022-11-28T11:39:24.350Z,38.65
2022-11-28T11:41:31.893Z,37.40
2022-11-28T11:43:39.534Z,42.22
2022-11-28T11:45:45.127Z,41.95
2022-11-28T11:47:52.155Z,41.58
2022-11-28T11:50:06.634Z,39.03
2022-11-28T11:52:28.118Z,43.60
2022-11-28T11:54:32.455Z,39.45
2022-11-28T11:56:42.613Z,39.28
2022-11-28T11:58:52.992Z,37.58
2022-11-28T12:01:00.233Z,39.33
2022-11-28T12:03:33.416Z,37.65
2022-11-28T12:06:15.268Z,39.90
2022-11-28T12:08:46.467Z,40.17
2022-11-28T12:11:17.040Z,37.65
2022-11-28T12:13:26.717Z,39.63
2022-11-28T12:15:56.231Z,37.80
2022-11-28T12:18:39.769Z,35.38
2022-11-28T12:21:11.598Z,37.70
2022-11-28T12:23:31.747Z,38.23
2022-11-28T12:25:47.958Z,40.70
2022-11-28T12:28:21.799Z,41.25
2022-11-28T12:30:54.253Z,40.97
2022-11-28T12:33:21.497Z,44.95
2022-11-28T12:35:38.048Z,45.13
2022-11-28T12:38:15.258Z,43.00
2022-11-28T12:40:45.789Z,42.05
2022-11-28T12:43:14.797Z,45.78
2022-11-28T12:45:44.047Z,43.78
2022-11-28T12:47:59.666Z,42.03
2022-11-28T12:50:35.208Z,41.35
2022-11-28T12:53:11.880Z,45.17
2022-11-28T12:55:43.608Z,43.17
2022-11-28T12:58:06.889Z,42.20
2022-11-28T13:00:21.999Z,43.45
2022-11-28T13:02:50.885Z,45.90
2022-11-28T13:05:13.890Z,43.70
2022-11-28T13:07:43.852Z,42.53
2022-11-28T13:10:00.098Z,42.05
2022-11-28T13:12:14.354Z,45.75
2022-11-28T13:14:38.397Z,40.70
2022-11-28T13:16:55.238Z,39.97
2022-11-28T13:19:21.747Z,39.10
2022-11-28T13:21:42.248Z,41.92
2022-11-28T13:24:09.109Z,42.75
2022-11-28T13:26:28.668Z,66.90
2022-11-28T13:28:44.700Z,52.15
2022-11-28T13:30:55.547Z,56.83
2022-11-28T13:33:24.927Z,43.63
2022-11-28T13:35:30.889Z,46.85
2022-11-28T13:40:26.217Z,53.63
2022-11-28T13:43:08.087Z,48.05
2022-11-28T13:45:56.539Z,52.57
2022-11-28T13:48:03.149Z,49.92
2022-11-28T13:50:30.437Z,52.10
2022-11-28T13:52:34.463Z,50.80
2022-11-28T13:54:44.410Z,49.58
2022-11-28T13:57:10.852Z,52.20
2022-11-28T13:59:26.137Z,50.95
2022-11-28T14:01:46.538Z,50.78
2022-11-28T14:04:07.417Z,48.08
2022-11-28T14:06:13.246Z,51.67
2022-11-28T14:08:35.098Z,48.28
2022-11-28T14:11:11.822Z,49.90
2022-11-28T14:13:28.131Z,49.60
2022-11-28T14:15:33.669Z,46.55
2022-11-28T14:18:01.990Z,48.13
2022-11-28T14:20:27.998Z,47.92
2022-11-28T14:22:53.796Z,56.65
2022-11-28T14:25:13.088Z,50.70
2022-11-28T14:27:28.350Z,52.10
2022-11-28T14:29:41.448Z,62.40
2022-11-28T14:32:13.711Z,108.82
2022-11-28T14:34:52.356Z,71.25
2022-11-28T14:37:22.844Z,47.25
2022-11-28T14:39:37.627Z,51.90
2022-11-28T14:42:06.320Z,59.75
2022-11-28T14:44:48.879Z,59.63
